Погода Палангана 2 недели

Клайпедский уезд, Литва

20 июля-01 августа
  • 20июля
    Сегодня
    +13°
    +22°
    Небольшая облачность
    ВремяПогодаТемператураВлажностьДавлениеВетер, м/сВероятность осадков
    00:00Ясно и безоблачно+15°C86 %762 мм2.3 м/с2 %
    03:00Практически безоблачно+14°C87 %762 мм2.4 м/с2 %
    06:00Ясно и безоблачно+15°C86 %761 мм2.7 м/с2 %
    09:00Ясно и безоблачно+19°C79 %761 мм2.7 м/с2 %
    12:00Ясно и безоблачно+21°C77 %760 мм3.8 м/с2 %
    15:00Небольшая облачность+22°C78 %760 мм4.5 м/с14 %
    18:00Ясно и безоблачно+21°C82 %759 мм4.0 м/с11 %
    21:00Ясно и безоблачно+19°C90 %758 мм2.2 м/с2 %
  • 21июля
    Воскресенье
    +14°
    +23°
    Практически безоблачно
    ВремяПогодаТемператураВлажностьДавлениеВетер, м/сВероятность осадков
    00:00Ясно и безоблачно+15°C90 %758 мм2.1 м/с2 %
    03:00Ясно и безоблачно+15°C91 %758 мм2.1 м/с2 %
    06:00Небольшая облачность+14°C96 %758 мм2.1 м/с2 %
    09:00Практически безоблачно+18°C88 %758 мм1.6 м/с2 %
    12:00Практически безоблачно+21°C79 %758 мм3.4 м/с19 %
    15:00Практически безоблачно+22°C78 %758 мм4.9 м/с34 %
    18:00Ясно и безоблачно+21°C79 %758 мм5.1 м/с22 %
    21:00Ясно и безоблачно+20°C85 %758 мм4.7 м/с3 %
  • 22июля
    Понедельник
    +16°
    +25°
    Облачно с прояснениями
    ВремяПогодаТемператураВлажностьДавлениеВетер, м/сВероятность осадков
    00:00Ясно и безоблачно+16°C89 %758 мм3.4 м/с2 %
    03:00Ясно и безоблачно+15°C95 %758 мм2.3 м/с2 %
    06:00Практически безоблачно+14°C98 %758 мм2.1 м/с2 %
    09:00Практически безоблачно+19°C91 %758 мм1.3 м/с2 %
    12:00Небольшая облачность+23°C81 %758 мм2.7 м/с12 %
    15:00Облачно с прояснениями+23°C81 %759 мм3.5 м/с24 %
    18:00Практически безоблачно+23°C78 %759 мм3.2 м/с13 %
    21:00Ясно и безоблачно+21°C87 %759 мм2.6 м/с2 %
  • 23июля
    Вторник
    +13°
    +22°
    Практически безоблачно
    ВремяПогодаТемператураВлажностьДавлениеВетер, м/сВероятность осадков
    00:00Облачно с прояснениями+18°C94 %760 мм2.2 м/с2 %
    03:00Облачно с прояснениями+16°C96 %760 мм1.9 м/с5 %
    06:00Небольшая облачность+16°C98 %760 мм1.9 м/с11 %
    09:00Практически безоблачно+21°C92 %760 мм0.8 м/с18 %
    12:00Ясно и безоблачно+22°C83 %760 мм2.9 м/с31 %
    15:00Практически безоблачно+22°C81 %760 мм3.7 м/с31 %
    18:00Ясно и безоблачно+22°C80 %760 мм3.8 м/с21 %
    21:00Практически безоблачно+20°C85 %760 мм2.3 м/с13 %
Мы используем cookies
Соглашаюсь